Time;durP1;ratioP1;P1;durP2;ratioP2;P2;SDS_P1;SDS_P2;PMS_P1;PMS_P2;Temp;Humidity;BMP_temperature;BMP_pressure;BME280_temperature;BME280_humidity;BME280_pressure;Samples;Min_cycle;Max_cycle;Signal;HPM_P1;HPM_P2
2022/10/22 00:00:25;;;;;;;30.27;12.90;;;;;;;10.32;100.00;100810.91;5092801;28;20529;-48
2022/10/22 00:02:50;;;;;;;26.25;13.73;;;;;;;10.30;100.00;100809.97;5091983;28;20024;-45
2022/10/22 00:05:16;;;;;;;25.33;13.80;;;;;;;10.19;100.00;100802.81;5092833;28;20048;-48
2022/10/22 00:07:41;;;;;;;23.88;12.95;;;;;;;10.17;100.00;100807.06;5092554;28;20494;-47
2022/10/22 00:10:07;;;;;;;29.80;13.10;;;;;;;10.13;100.00;100809.47;5091806;28;20089;-48
2022/10/22 00:12:32;;;;;;;29.85;15.95;;;;;;;10.39;100.00;100807.72;5093008;28;20024;-46
2022/10/22 00:14:58;;;;;;;29.40;14.80;;;;;;;10.23;100.00;100815.78;5092602;28;20390;-46
2022/10/22 00:17:23;;;;;;;31.05;15.20;;;;;;;10.25;100.00;100811.53;5091857;28;20024;-48
2022/10/22 00:19:48;;;;;;;33.88;15.30;;;;;;;10.14;100.00;100814.66;5092592;28;20016;-48
2022/10/22 00:22:14;;;;;;;27.88;14.15;;;;;;;10.16;100.00;100813.03;5092512;28;20031;-49
2022/10/22 00:24:39;;;;;;;28.00;13.38;;;;;;;10.12;100.00;100813.75;5091620;28;20447;-48
2022/10/22 00:27:07;;;;;;;30.88;14.32;;;;;;;10.15;100.00;100811.28;5092595;28;20024;-49
2022/10/22 00:29:33;;;;;;;27.20;14.88;;;;;;;10.13;100.00;100807.75;5092816;28;20024;-48
2022/10/22 00:31:58;;;;;;;30.10;15.13;;;;;;;10.12;100.00;100808.63;5091637;28;20119;-49
2022/10/22 00:34:24;;;;;;;27.50;15.82;;;;;;;10.16;100.00;100810.44;5092551;28;20024;-48
2022/10/22 00:36:50;;;;;;;28.42;15.60;;;;;;;10.10;100.00;100810.25;5095381;28;20020;-48
2022/10/22 00:39:18;;;;;;;27.30;14.68;;;;;;;10.04;100.00;100817.78;5095362;28;20020;-48
2022/10/22 00:41:44;;;;;;;31.30;16.27;;;;;;;10.15;100.00;100815.56;5096371;28;20120;-49
2022/10/22 00:44:48;;;;;;;32.83;17.23;;;;;;;10.10;100.00;100823.13;5095847;28;20047;-49
2022/10/22 00:47:15;;;;;;;31.13;15.30;;;;;;;10.09;100.00;100821.38;5095469;28;20039;-49
2022/10/22 00:49:40;;;;;;;36.50;19.15;;;;;;;10.27;100.00;100815.91;5095905;28;20020;-48
2022/10/22 00:52:05;;;;;;;35.13;18.08;;;;;;;10.25;100.00;100815.00;5095086;28;20039;-49
2022/10/22 00:54:32;;;;;;;34.50;19.58;;;;;;;10.41;100.00;100812.94;5095970;28;20020;-48
2022/10/22 00:56:57;;;;;;;43.15;18.80;;;;;;;10.34;100.00;100811.81;5095791;28;20032;-48
2022/10/22 00:59:23;;;;;;;40.38;21.70;;;;;;;10.62;100.00;100813.53;5095240;28;20504;-49
2022/10/22 01:01:49;;;;;;;45.58;22.92;;;;;;;10.76;100.00;100807.91;5095810;28;20027;-45
2022/10/22 01:04:15;;;;;;;43.28;21.73;;;;;;;10.79;100.00;100810.56;5095712;28;20032;-45
2022/10/22 01:06:40;;;;;;;44.13;21.65;;;;;;;10.79;100.00;100808.84;5094970;28;20028;-48
2022/10/22 01:09:17;;;;;;;37.75;20.30;;;;;;;10.73;100.00;100808.72;5095626;28;20446;-48
2022/10/22 01:12:00;;;;;;;41.42;20.35;;;;;;;10.75;100.00;100806.16;5095491;28;20391;-49
2022/10/22 01:14:47;;;;;;;41.65;20.35;;;;;;;10.82;100.00;100811.53;5094965;28;20110;-49
2022/10/22 01:17:27;;;;;;;42.67;20.88;;;;;;;10.90;100.00;100808.28;5095742;28;20028;-49
2022/10/22 01:20:06;;;;;;;39.58;20.50;;;;;;;10.94;100.00;100804.97;5095338;28;20110;-49
2022/10/22 01:22:39;;;;;;;35.25;20.65;;;;;;;10.93;100.00;100811.81;5095007;28;20036;-49
2022/10/22 01:25:10;;;;;;;38.38;20.17;;;;;;;10.92;100.00;100812.66;5095291;28;20103;-48
2022/10/22 01:27:52;;;;;;;39.80;20.50;;;;;;;10.96;100.00;100808.44;5094361;28;20517;-48
2022/10/22 01:30:19;;;;;;;38.17;19.20;;;;;;;10.90;100.00;100806.59;5095607;28;20412;-48
2022/10/22 01:32:49;;;;;;;39.30;19.55;;;;;;;10.91;100.00;100810.03;5095222;28;20097;-49
2022/10/22 01:35:19;;;;;;;42.47;19.40;;;;;;;10.90;100.00;100804.00;5094447;28;20031;-49
2022/10/22 01:37:48;;;;;;;40.70;18.67;;;;;;;10.87;100.00;100804.81;5095020;28;20043;-48
2022/10/22 01:40:16;;;;;;;40.83;18.40;;;;;;;10.93;100.00;100800.66;5094942;28;20119;-48
2022/10/22 01:42:41;;;;;;;39.28;18.98;;;;;;;10.89;100.00;100803.97;5094270;28;20048;-48
2022/10/22 01:45:11;;;;;;;43.42;20.00;;;;;;;10.98;100.00;100802.50;5095099;28;20020;-50
2022/10/22 01:47:53;;;;;;;40.70;18.13;;;;;;;10.90;100.00;100798.84;5094242;28;20468;-48
2022/10/22 01:50:40;;;;;;;36.42;16.83;;;;;;;10.86;100.00;100803.06;5094853;28;20058;-49
2022/10/22 01:53:16;;;;;;;32.58;16.52;;;;;;;10.93;100.00;100798.06;5094829;28;20471;-48
2022/10/22 01:56:08;;;;;;;38.55;19.13;;;;;;;10.97;100.00;100799.91;5093996;28;20024;-49
2022/10/22 01:59:06;;;;;;;36.80;17.95;;;;;;;10.90;100.00;100808.28;5094826;28;20032;-49
2022/10/22 02:01:53;;;;;;;41.00;17.65;;;;;;;10.90;100.00;100813.44;5094645;28;20431;-48
2022/10/22 02:04:28;;;;;;;33.75;15.57;;;;;;;10.78;100.00;100812.28;5094262;28;20107;-49
2022/10/22 02:06:58;;;;;;;39.25;17.65;;;;;;;10.79;100.00;100815.72;5094589;28;20028;-47
2022/10/22 02:09:27;;;;;;;33.50;18.33;;;;;;;10.74;100.00;100810.44;5094191;28;20035;-44
2022/10/22 02:11:55;;;;;;;36.80;18.30;;;;;;;10.77;100.00;100807.97;5094479;28;20024;-49
2022/10/22 02:14:21;;;;;;;33.55;17.25;;;;;;;10.71;100.00;100802.63;5094612;28;20110;-49
2022/10/22 02:16:48;;;;;;;29.85;18.15;;;;;;;10.76;100.00;100808.78;5093550;28;20078;-48
2022/10/22 02:19:17;;;;;;;40.20;18.55;;;;;;;10.63;100.00;100815.28;5094275;28;20069;-49
2022/10/22 02:21:43;;;;;;;46.03;20.25;;;;;;;10.73;100.00;100805.22;5094468;28;20063;-47
2022/10/22 02:24:08;;;;;;;41.03;20.73;;;;;;;10.79;100.00;100811.44;5093590;28;20804;-48
2022/10/22 02:26:40;;;;;;;44.13;21.23;;;;;;;10.74;100.00;100802.69;5094090;28;20084;-49
2022/10/22 02:29:12;;;;;;;40.25;20.33;;;;;;;10.85;100.00;100806.44;5094177;28;20028;-48
2022/10/22 02:31:40;;;;;;;37.00;19.10;;;;;;;10.80;100.00;100802.00;5093228;28;20031;-48
2022/10/22 02:34:10;;;;;;;40.15;20.30;;;;;;;10.76;100.00;100800.19;5094242;28;20051;-48
2022/10/22 02:36:42;;;;;;;37.90;20.42;;;;;;;10.79;100.00;100805.41;5094050;28;20031;-48
2022/10/22 02:39:09;;;;;;;38.05;19.33;;;;;;;10.74;100.00;100796.69;5093546;28;20024;-47
2022/10/22 02:41:36;;;;;;;41.53;21.47;;;;;;;10.92;100.00;100796.31;5093937;28;20372;-47
2022/10/22 02:44:07;;;;;;;44.67;20.25;;;;;;;10.87;100.00;100802.22;5093473;28;20394;-48
2022/10/22 02:46:33;;;;;;;46.20;21.33;;;;;;;10.96;100.00;100799.03;5093260;28;20460;-48
2022/10/22 02:48:58;;;;;;;48.58;22.40;;;;;;;10.98;100.00;100805.09;5093477;28;20081;-49
2022/10/22 02:51:23;;;;;;;40.05;21.50;;;;;;;10.97;100.00;100805.06;5093763;28;20487;-48
2022/10/22 02:53:49;;;;;;;45.15;21.45;;;;;;;11.00;100.00;100811.16;5093164;28;20027;-47
2022/10/22 02:56:14;;;;;;;39.42;18.50;;;;;;;10.85;100.00;100814.19;5093655;28;20389;-48
2022/10/22 02:58:39;;;;;;;39.33;20.33;;;;;;;10.95;100.00;100812.75;5092125;28;20024;-45
2022/10/22 03:01:04;;;;;;;47.00;22.23;;;;;;;11.09;100.00;100815.72;5093492;28;20028;-46
2022/10/22 03:03:30;;;;;;;45.70;21.77;;;;;;;11.10;100.00;100812.28;5093821;28;20019;-48
2022/10/22 03:05:55;;;;;;;41.45;19.65;;;;;;;11.06;100.00;100810.44;5092603;28;20028;-49
2022/10/22 03:08:20;;;;;;;46.92;20.42;;;;;;;11.15;100.00;100815.84;5093427;28;20028;-48
2022/10/22 03:10:45;;;;;;;46.35;19.90;;;;;;;11.09;100.00;100820.88;5093463;28;20468;-49
2022/10/22 03:13:11;;;;;;;40.28;19.67;;;;;;;11.17;100.00;100815.91;5092494;28;20032;-49
2022/10/22 03:15:36;;;;;;;49.30;19.95;;;;;;;11.22;100.00;100816.91;5093199;28;20520;-48
2022/10/22 03:18:01;;;;;;;38.47;18.17;;;;;;;11.14;100.00;100818.41;5093219;28;20032;-49
2022/10/22 03:20:27;;;;;;;39.85;18.98;;;;;;;11.20;100.00;100816.84;5092647;28;20497;-49
2022/10/22 03:22:52;;;;;;;40.70;18.98;;;;;;;11.27;100.00;100819.59;5093181;28;20032;-48
2022/10/22 03:25:21;;;;;;;41.95;19.02;;;;;;;11.32;100.00;100823.16;5093295;28;20441;-46
2022/10/22 03:27:49;;;;;;;46.33;19.27;;;;;;;11.44;100.00;100826.06;5092191;28;20455;-48
2022/10/22 03:30:14;;;;;;;44.85;18.10;;;;;;;11.46;100.00;100821.81;5093123;28;20131;-48
2022/10/22 03:32:39;;;;;;;39.85;18.45;;;;;;;11.50;100.00;100821.09;5092969;28;20064;-48
2022/10/22 03:35:05;;;;;;;39.45;17.83;;;;;;;11.59;100.00;100829.88;5092378;28;20099;-49
2022/10/22 03:37:31;;;;;;;41.80;16.55;;;;;;;11.60;100.00;100824.75;5093052;28;20490;-46
2022/10/22 03:39:57;;;;;;;41.08;16.23;;;;;;;11.69;100.00;100829.28;5092667;28;20031;-48
2022/10/22 03:42:23;;;;;;;41.97;15.88;;;;;;;11.67;100.00;100841.25;5092303;28;20052;-48
2022/10/22 03:44:48;;;;;;;38.00;16.50;;;;;;;11.72;100.00;100834.50;5092793;28;20031;-48
2022/10/22 03:47:13;;;;;;;39.22;15.27;;;;;;;11.72;100.00;100839.66;5092744;28;20098;-48
2022/10/22 03:49:39;;;;;;;36.40;15.73;;;;;;;11.68;100.00;100840.44;5092387;28;20095;-48
2022/10/22 03:52:06;;;;;;;33.17;14.35;;;;;;;11.71;100.00;100837.94;5092924;28;20483;-47
2022/10/22 03:54:32;;;;;;;;;;;;;;;11.73;100.00;100844.00;5093139;28;20032;-48
2022/10/22 03:56:57;;;;;;;36.78;14.90;;;;;;;11.73;100.00;100841.41;5092087;28;19919;-46
2022/10/22 03:59:22;;;;;;;32.67;13.70;;;;;;;11.70;100.00;100846.53;5092843;28;20106;-48
2022/10/22 04:01:47;;;;;;;30.55;13.35;;;;;;;11.66;100.00;100847.28;5092442;28;20029;-47
2022/10/22 04:04:13;;;;;;;38.63;14.07;;;;;;;11.68;100.00;100843.00;5092390;28;20020;-48
2022/10/22 04:06:38;;;;;;;39.75;13.52;;;;;;;11.68;100.00;100848.19;5092666;28;20032;-49
2022/10/22 04:09:03;;;;;;;35.10;13.98;;;;;;;11.70;100.00;100849.09;5092213;28;20020;-46
2022/10/22 04:11:28;;;;;;;35.28;14.48;;;;;;;11.67;100.00;100857.63;5096907;28;20046;-47
2022/10/22 04:13:54;;;;;;;33.90;12.95;;;;;;;11.65;100.00;100850.69;5096522;28;20024;-48
2022/10/22 04:16:21;;;;;;;35.65;13.18;;;;;;;11.66;100.00;100865.34;5096222;28;20020;-48
2022/10/22 04:18:48;;;;;;;34.45;13.95;;;;;;;11.73;100.00;100856.03;5096799;28;20028;-48
2022/10/22 04:21:15;;;;;;;;;;;;;;;11.73;100.00;100856.91;5097154;28;20031;-48
2022/10/22 04:23:49;;;;;;;28.17;11.98;;;;;;;11.73;100.00;100856.03;5095722;28;20371;-49
2022/10/22 04:26:16;;;;;;;37.20;13.05;;;;;;;11.74;100.00;100861.25;5096400;28;20507;-49
2022/10/22 04:28:42;;;;;;;33.25;13.20;;;;;;;11.76;100.00;100861.28;5096435;28;20035;-49
2022/10/22 04:31:16;;;;;;;30.77;12.73;;;;;;;11.76;100.00;100862.16;5095963;28;20024;-49
2022/10/22 04:33:42;;;;;;;31.50;12.40;;;;;;;11.78;100.00;100852.72;5096485;28;20051;-49
2022/10/22 04:36:14;;;;;;;43.33;12.85;;;;;;;11.80;100.00;100858.81;5096109;28;20088;-49
2022/10/22 04:38:40;;;;;;;35.42;12.50;;;;;;;11.73;100.00;100856.91;5095639;28;20056;-49
2022/10/22 04:41:09;;;;;;;33.60;12.43;;;;;;;11.79;100.00;100857.06;5096177;28;20051;-48
2022/10/22 04:43:34;;;;;;;30.10;11.35;;;;;;;11.78;100.00;100860.47;5095996;28;20067;-49
2022/10/22 04:46:00;;;;;;;35.15;11.70;;;;;;;11.79;100.00;100857.06;5095504;28;20466;-50
2022/10/22 04:48:25;;;;;;;31.67;11.27;;;;;;;11.78;100.00;100859.63;5096201;28;20032;-49
2022/10/22 04:50:50;;;;;;;36.67;11.40;;;;;;;11.77;100.00;100858.72;5095774;28;20031;-45
2022/10/22 04:53:16;;;;;;;30.20;11.68;;;;;;;11.77;100.00;100868.19;5095898;28;20143;-48
2022/10/22 04:55:41;;;;;;;27.67;11.40;;;;;;;11.78;100.00;100870.81;5096103;28;20034;-49
2022/10/22 04:58:06;;;;;;;36.63;12.25;;;;;;;11.81;100.00;100865.72;5095836;28;20020;-48
2022/10/22 05:00:31;;;;;;;31.45;11.13;;;;;;;11.78;100.00;100870.81;5095523;28;20020;-49
2022/10/22 05:02:57;;;;;;;38.85;11.38;;;;;;;11.75;100.00;100870.75;5095789;28;20030;-49
2022/10/22 05:05:22;;;;;;;35.75;11.65;;;;;;;11.72;100.00;100880.13;5095209;28;20016;-48
2022/10/22 05:07:50;;;;;;;37.50;11.98;;;;;;;11.72;100.00;100886.13;5095516;28;20031;-48
2022/10/22 05:10:15;;;;;;;;;;;;;;;11.75;100.00;100878.50;5096018;28;20028;-49
2022/10/22 05:12:40;;;;;;;35.50;11.67;;;;;;;11.73;100.00;100885.31;5095000;28;20001;-48
2022/10/22 05:15:06;;;;;;;31.73;11.43;;;;;;;11.76;100.00;100876.75;5095510;28;20024;-48
2022/10/22 05:17:35;;;;;;;32.75;10.85;;;;;;;11.72;100.00;100880.13;5095739;28;20035;-48
2022/10/22 05:20:00;;;;;;;37.05;12.70;;;;;;;11.78;100.00;100880.28;5094672;28;20039;-47
2022/10/22 05:22:25;;;;;;;32.58;11.65;;;;;;;11.78;100.00;100881.13;5094872;28;20570;-48
2022/10/22 05:24:50;;;;;;;35.40;11.57;;;;;;;11.82;100.00;100884.66;5095012;28;20023;-47
2022/10/22 05:27:16;;;;;;;42.75;12.50;;;;;;;11.88;100.00;100881.34;5094834;28;20526;-48
2022/10/22 05:29:41;;;;;;;34.33;11.38;;;;;;;11.90;100.00;100890.03;5095222;28;20053;-49
2022/10/22 05:32:06;;;;;;;32.25;11.15;;;;;;;11.88;100.00;100886.53;5095183;28;20030;-49
2022/10/22 05:34:32;;;;;;;26.55;11.13;;;;;;;11.88;100.00;100883.94;5094766;28;20090;-48
2022/10/22 05:36:57;;;;;;;39.88;11.45;;;;;;;11.89;100.00;100888.28;5094952;28;20506;-49
2022/10/22 05:39:22;;;;;;;39.42;11.27;;;;;;;11.85;100.00;100880.47;5094916;28;20479;-49
2022/10/22 05:41:48;;;;;;;31.20;10.65;;;;;;;11.88;100.00;100881.34;5094651;28;20050;-49
2022/10/22 05:44:13;;;;;;;38.72;11.23;;;;;;;11.88;100.00;100887.41;5094833;28;20066;-48
2022/10/22 05:46:39;;;;;;;32.45;10.93;;;;;;;11.87;100.00;100903.75;5094703;28;20016;-47
2022/10/22 05:49:06;;;;;;;31.75;10.82;;;;;;;11.88;100.00;100904.59;5094754;28;20058;-49
2022/10/22 05:51:33;;;;;;;33.70;10.45;;;;;;;11.83;100.00;100902.78;5094976;28;20051;-48
2022/10/22 05:54:01;;;;;;;38.47;11.35;;;;;;;11.86;100.00;100908.03;5094330;28;20088;-49
2022/10/22 05:56:29;;;;;;;37.00;10.98;;;;;;;11.87;100.00;100901.16;5094485;28;20021;-49
2022/10/22 05:58:55;;;;;;;31.48;9.93;;;;;;;11.86;100.00;100910.63;5094394;28;20365;-49
2022/10/22 06:01:23;;;;;;;40.95;11.07;;;;;;;11.91;100.00;100913.31;5094613;28;20021;-50
2022/10/22 06:03:52;;;;;;;29.15;9.25;;;;;;;11.94;100.00;100920.25;5093941;28;20024;-48
2022/10/22 06:06:23;;;;;;;36.47;10.23;;;;;;;11.93;100.00;100915.91;5094381;28;20031;-47
2022/10/22 06:08:51;;;;;;;31.45;10.07;;;;;;;11.91;100.00;100923.63;5093843;28;20020;-46
2022/10/22 06:11:18;;;;;;;40.38;9.63;;;;;;;11.86;100.00;100926.13;5094519;28;20023;-49
2022/10/22 06:13:44;;;;;;;30.20;9.45;;;;;;;11.85;100.00;100926.94;5094481;28;20028;-48
2022/10/22 06:16:09;;;;;;;34.47;9.70;;;;;;;11.85;100.00;100926.94;5093482;28;20461;-49
2022/10/22 06:18:35;;;;;;;33.58;9.93;;;;;;;11.88;100.00;100933.00;5094455;28;20537;-50
2022/10/22 06:21:08;;;;;;;28.48;9.38;;;;;;;11.86;100.00;100940.72;5093879;28;20506;-49
2022/10/22 06:23:35;;;;;;;31.70;9.27;;;;;;;11.90;100.00;100944.25;5093630;28;20032;-47
2022/10/22 06:26:01;;;;;;;35.63;8.75;;;;;;;11.93;100.00;100944.34;5094307;28;20065;-50
2022/10/22 06:28:26;;;;;;;26.60;8.98;;;;;;;11.96;100.00;100947.91;5094103;28;20402;-49
2022/10/22 06:30:51;;;;;;;29.67;9.63;;;;;;;11.99;100.00;100952.28;5093554;28;20475;-49
2022/10/22 06:33:17;;;;;;;28.27;8.90;;;;;;;11.96;100.00;100957.38;5092920;28;20400;-46
2022/10/22 06:35:44;;;;;;;33.65;9.60;;;;;;;11.98;100.00;100964.34;5093608;28;20494;-48
2022/10/22 06:38:09;;;;;;;34.17;9.63;;;;;;;12.01;100.00;100961.81;5093531;28;20032;-44
2022/10/22 06:40:34;;;;;;;27.42;8.85;;;;;;;11.98;100.00;100968.59;5094086;28;20069;-49
2022/10/22 06:43:00;;;;;;;33.47;9.32;;;;;;;11.98;100.00;100977.25;5093245;28;20169;-48
2022/10/22 06:45:25;;;;;;;31.05;8.70;;;;;;;12.00;100.00;100974.69;5093836;28;20034;-48
2022/10/22 06:47:50;;;;;;;32.28;9.23;;;;;;;12.02;100.00;100979.06;5093530;28;20030;-50
2022/10/22 06:50:16;;;;;;;32.88;8.60;;;;;;;12.01;100.00;100981.63;5093651;28;20028;-48
2022/10/22 06:52:41;;;;;;;28.58;9.07;;;;;;;12.07;100.00;100983.47;5093287;28;20372;-45
2022/10/22 06:55:07;;;;;;;27.63;8.35;;;;;;;12.03;100.00;100990.25;5093716;28;20383;-48
2022/10/22 06:57:32;;;;;;;31.15;8.10;;;;;;;12.07;100.00;100994.69;5093572;28;20472;-49
2022/10/22 06:59:58;;;;;;;33.13;7.90;;;;;;;12.07;100.00;101002.44;5092846;28;20087;-47
2022/10/22 07:02:23;;;;;;;31.58;7.45;;;;;;;12.07;100.00;101005.03;5093636;28;20053;-49
2022/10/22 07:04:48;;;;;;;32.50;8.65;;;;;;;12.05;100.00;101004.09;5092485;28;20031;-46
2022/10/22 07:07:14;;;;;;;30.33;7.70;;;;;;;12.04;100.00;101010.09;5093378;28;20075;-47
2022/10/22 07:09:39;;;;;;;34.20;8.52;;;;;;;12.00;100.00;101010.84;5093442;28;20173;-48
2022/10/22 07:12:05;;;;;;;26.33;7.10;;;;;;;12.03;100.00;101021.25;5092684;28;20498;-49
2022/10/22 07:14:30;;;;;;;30.98;7.88;;;;;;;12.06;100.00;101021.34;5093508;28;20027;-46
2022/10/22 07:16:56;;;;;;;26.00;7.95;;;;;;;12.12;100.00;101024.09;5093272;28;20487;-47
2022/10/22 07:19:21;;;;;;;30.50;7.53;;;;;;;12.16;100.00;101027.63;5092523;28;20028;-48
2022/10/22 07:21:46;;;;;;;28.98;8.20;;;;;;;12.21;100.00;101036.38;5093053;28;20032;-48
2022/10/22 07:24:12;;;;;;;29.20;8.45;;;;;;;12.25;100.00;101037.31;5093008;28;20529;-49
2022/10/22 07:26:37;;;;;;;31.05;8.68;;;;;;;12.27;100.00;101040.84;5092439;28;20024;-48
2022/10/22 07:29:03;;;;;;;28.40;8.10;;;;;;;12.29;100.00;101036.56;5093045;28;20475;-48
2022/10/22 07:31:29;;;;;;;28.55;7.40;;;;;;;12.28;100.00;101038.28;5092848;28;20429;-49
2022/10/22 07:33:54;;;;;;;27.52;7.05;;;;;;;12.30;100.00;101041.78;5092268;28;20471;-48
2022/10/22 07:36:19;;;;;;;30.52;8.00;;;;;;;12.36;100.00;101041.06;5093272;28;20517;-48
2022/10/22 07:38:55;;;;;;;32.40;8.30;;;;;;;12.44;100.00;101052.47;5092761;28;20035;-48
2022/10/22 07:41:20;;;;;;;24.50;7.47;;;;;;;12.55;100.00;101051.84;5092578;28;20099;-49
2022/10/22 07:43:45;;;;;;;30.42;8.07;;;;;;;12.64;100.00;101054.66;5092480;28;20123;-46
2022/10/22 07:46:11;;;;;;;27.10;7.22;;;;;;;12.75;100.00;101055.81;5092420;28;20032;-49
2022/10/22 07:48:36;;;;;;;32.22;7.75;;;;;;;12.85;100.00;101057.78;5092083;28;20027;-46
2022/10/22 07:51:02;;;;;;;29.35;8.02;;;;;;;12.93;100.00;101060.53;5092754;28;20028;-47
2022/10/22 07:53:28;;;;;;;29.02;7.90;;;;;;;13.00;100.00;101057.25;5092565;28;20460;-48
2022/10/22 07:55:53;;;;;;;32.38;7.43;;;;;;;13.08;100.00;101054.84;5092007;28;20492;-44
2022/10/22 07:58:20;;;;;;;33.60;8.32;;;;;;;13.17;100.00;101065.41;5092821;28;20099;-49
2022/10/22 08:00:45;;;;;;;22.85;6.57;;;;;;;13.26;100.00;101071.63;5092374;28;20043;-46
2022/10/22 08:03:11;;;;;;;27.52;6.88;;;;;;;13.32;100.00;101064.88;5092251;28;20024;-46
2022/10/22 08:05:38;;;;;;;30.10;6.70;;;;;;;13.38;100.00;101082.28;5092789;28;20028;-48
2022/10/22 08:08:04;;;;;;;22.92;6.47;;;;;;;13.46;100.00;101072.09;5092481;28;20115;-46
2022/10/22 08:10:30;;;;;;;24.63;6.50;;;;;;;13.50;100.00;101090.31;5092606;28;20086;-46
2022/10/22 08:12:55;;;;;;;35.88;6.68;;;;;;;13.57;100.00;101080.06;5092482;28;20024;-46
2022/10/22 08:15:22;;;;;;;29.75;6.45;;;;;;;13.66;100.00;101088.06;5091702;28;20041;-47
2022/10/22 08:17:47;;;;;;;28.67;5.63;;;;;;;13.72;100.00;101085.56;5092720;28;20020;-47
2022/10/22 08:20:13;;;;;;;28.33;5.95;;;;;;;13.80;100.00;101089.22;5092499;28;20395;-48
2022/10/22 08:22:38;;;;;;;25.05;5.50;;;;;;;13.93;100.00;101094.63;5091849;28;20027;-46
2022/10/22 08:25:03;;;;;;;21.55;5.68;;;;;;;13.94;100.00;101096.38;5092547;28;20046;-46
2022/10/22 08:27:29;;;;;;;34.65;6.32;;;;;;;13.88;100.00;101091.06;5092403;28;20039;-45
2022/10/22 08:29:54;;;;;;;23.88;5.80;;;;;;;13.96;100.00;101094.69;5091683;28;20036;-45
2022/10/22 08:32:19;;;;;;;28.35;5.65;;;;;;;14.19;100.00;101107.22;5092410;28;20372;-47
2022/10/22 08:34:45;;;;;;;25.20;5.15;;;;;;;14.33;100.00;101110.94;5092058;28;20097;-45
2022/10/22 08:37:13;;;;;;;25.40;5.40;;;;;;;14.38;100.00;101108.44;5091852;28;20031;-47
2022/10/22 08:39:38;;;;;;;24.85;4.53;;;;;;;14.45;100.00;101121.53;5092218;28;20032;-48
2022/10/22 08:42:25;;;;;;;25.90;5.10;;;;;;;14.49;100.00;101123.34;5091953;28;20021;-46
2022/10/22 08:45:18;;;;;;;22.27;5.18;;;;;;;14.51;100.00;101138.06;5091668;28;20051;-46
2022/10/22 08:47:58;;;;;;;21.60;5.05;;;;;;;14.47;100.00;101134.53;5092264;28;20058;-47
2022/10/22 08:50:34;;;;;;;22.50;5.07;;;;;;;14.49;100.00;101136.31;5092041;28;20028;-47
2022/10/22 08:53:04;;;;;;;19.75;4.90;;;;;;;14.51;100.00;101145.84;5092042;28;20024;-46
2022/10/22 08:55:30;;;;;;;27.15;4.82;;;;;;;14.47;100.00;101145.78;5092537;28;20111;-47
2022/10/22 08:58:16;;;;;;;29.83;5.13;;;;;;;14.46;100.00;101148.31;5094721;28;20036;-45
2022/10/22 09:00:51;;;;;;;19.63;4.60;;;;;;;14.48;100.00;101144.91;5095854;28;20105;-47
2022/10/22 09:03:37;;;;;;;22.58;4.70;;;;;;;14.56;100.00;101146.78;5095586;28;20035;-46
2022/10/22 09:06:17;;;;;;;27.33;4.35;;;;;;;14.59;100.00;101154.63;5095390;28;20035;-47
2022/10/22 09:08:44;;;;;;;25.05;4.55;;;;;;;14.63;100.00;101161.63;5095688;28;20020;-47
2022/10/22 09:11:10;;;;;;;23.30;3.97;;;;;;;14.65;100.00;101165.13;5095464;28;20033;-45
2022/10/22 09:13:36;;;;;;;14.67;3.70;;;;;;;14.69;100.00;101166.94;5095048;28;20407;-45
2022/10/22 09:16:15;;;;;;;25.25;4.68;;;;;;;14.77;100.00;101160.19;5095440;28;20032;-48
2022/10/22 09:18:56;;;;;;;21.63;5.00;;;;;;;14.89;100.00;101171.63;5094907;28;20325;-46
2022/10/22 09:21:33;;;;;;;22.25;4.45;;;;;;;14.97;100.00;101177.81;5095619;28;20084;-48
2022/10/22 09:24:37;;;;;;;31.92;5.00;;;;;;;14.92;99.67;101169.94;5095104;28;20364;-48
2022/10/22 09:27:15;;;;;;;25.83;4.75;;;;;;;14.92;99.91;101179.44;5012678;28;20084;-48
2022/10/22 09:29:42;;;;;;;21.13;5.10;;;;;;;14.90;100.00;101181.13;5084924;28;20032;-46
2022/10/22 09:32:07;;;;;;;20.53;4.70;;;;;;;14.89;99.56;101182.88;5095044;28;20028;-48
2022/10/22 09:34:32;;;;;;;16.85;4.15;;;;;;;14.92;100.00;101185.50;5094668;28;20780;-47
2022/10/22 09:37:04;;;;;;;25.58;4.93;;;;;;;14.95;100.00;101190.75;5095228;28;20024;-46
2022/10/22 09:39:36;;;;;;;24.13;5.70;;;;;;;14.98;98.99;101192.53;5095029;28;20031;-48
2022/10/22 09:42:03;;;;;;;20.20;5.00;;;;;;;15.02;98.45;101199.53;5095284;28;20035;-48
2022/10/22 09:44:36;;;;;;;21.60;4.68;;;;;;;14.99;98.79;101207.25;5094669;28;20036;-44
2022/10/22 09:47:27;;;;;;;28.52;5.82;;;;;;;15.08;99.58;101207.41;5094339;28;20031;-47
2022/10/22 09:50:24;;;;;;;25.55;5.57;;;;;;;15.13;100.00;101210.97;5095062;28;20020;-48
2022/10/22 09:53:05;;;;;;;28.52;5.38;;;;;;;15.15;98.18;101211.84;5087254;28;20489;-48
2022/10/22 09:55:30;;;;;;;24.58;5.10;;;;;;;15.13;97.66;101216.16;5094246;28;20061;-48
2022/10/22 09:57:59;;;;;;;28.02;4.93;;;;;;;15.19;98.59;101219.69;5094414;28;20349;-47
2022/10/22 10:00:25;;;;;;;16.40;4.25;;;;;;;15.22;98.87;101227.53;5094724;28;20028;-46
2022/10/22 10:02:59;;;;;;;25.75;5.00;;;;;;;15.21;97.81;101229.25;5094143;28;20035;-48
2022/10/22 10:05:31;;;;;;;26.10;4.90;;;;;;;15.19;98.07;101230.09;5094460;28;20115;-47
2022/10/22 10:07:57;;;;;;;24.45;6.22;;;;;;;15.16;95.41;101236.09;5093432;28;20024;-45
2022/10/22 10:10:40;;;;;;;14.05;5.05;;;;;;;15.20;97.69;101243.09;5094743;28;20463;-46
2022/10/22 10:13:28;;;;;;;23.60;4.97;;;;;;;15.22;97.64;101253.50;5094379;28;20193;-48
2022/10/22 10:15:56;;;;;;;20.23;4.35;;;;;;;15.19;96.65;101250.84;5093709;28;20032;-47
2022/10/22 10:18:28;;;;;;;28.73;5.40;;;;;;;15.19;96.86;101250.84;5094411;28;20028;-47
2022/10/22 10:20:58;;;;;;;21.70;4.80;;;;;;;15.27;97.42;101260.53;5093887;28;20464;-45
2022/10/22 10:23:33;;;;;;;27.60;5.30;;;;;;;15.33;96.46;101257.16;5093970;28;20041;-47
2022/10/22 10:26:19;;;;;;;21.40;4.53;;;;;;;15.38;95.90;101255.50;5094027;28;20028;-47
2022/10/22 10:28:57;;;;;;;21.73;5.18;;;;;;;15.43;94.52;101265.97;5093320;28;20024;-44
2022/10/22 10:31:43;;;;;;;21.10;5.00;;;;;;;15.53;95.97;101262.69;5094335;28;20028;-47
2022/10/22 10:34:46;;;;;;;26.05;5.82;;;;;;;15.67;96.21;101264.59;5093949;28;20062;-48
2022/10/22 10:37:23;;;;;;;27.95;5.22;;;;;;;15.67;94.57;101264.59;5077579;28;20032;-46
2022/10/22 10:40:07;;;;;;;22.75;5.32;;;;;;;15.77;94.61;101269.09;5094119;28;20028;-47
2022/10/22 10:42:45;;;;;;;21.65;4.97;;;;;;;15.78;94.19;101268.25;5093693;28;20071;-47
2022/10/22 10:45:19;;;;;;;22.15;5.25;;;;;;;15.85;93.96;101264.03;5093296;28;20028;-49
2022/10/22 10:48:06;;;;;;;24.30;6.05;;;;;;;15.79;93.78;101270.88;5093289;28;20035;-47
2022/10/22 10:50:49;;;;;;;31.37;5.97;;;;;;;16.29;92.65;101276.75;5093457;28;20038;-44
2022/10/22 10:53:34;;;;;;;32.33;5.65;;;;;;;16.90;91.08;101268.84;5093726;28;20032;-45
2022/10/22 10:56:18;;;;;;;28.58;5.57;;;;;;;17.09;87.54;101276.81;5093229;28;20104;-47
2022/10/22 10:58:55;;;;;;;18.25;4.90;;;;;;;17.37;85.08;101272.72;5093153;28;20024;-47
2022/10/22 11:01:44;;;;;;;34.28;4.90;;;;;;;17.86;83.22;101271.34;5093715;28;20028;-48
2022/10/22 11:04:27;;;;;;;24.25;4.75;;;;;;;18.22;80.88;101265.50;5092835;28;20036;-48
2022/10/22 11:06:59;;;;;;;25.02;5.00;;;;;;;18.45;78.52;101272.56;5093543;28;20089;-49
2022/10/22 11:09:29;;;;;;;23.35;4.95;;;;;;;18.50;76.47;101272.56;5093435;28;20081;-48
2022/10/22 11:12:05;;;;;;;22.48;5.63;;;;;;;18.17;78.23;101274.16;5092659;28;20364;-49
2022/10/22 11:14:40;;;;;;;30.73;5.38;;;;;;;18.11;79.26;101272.38;5093409;28;20020;-50
2022/10/22 11:17:13;;;;;;;24.08;4.60;;;;;;;18.50;77.28;101275.16;5093320;28;20203;-48